Time;durP1;ratioP1;P1;durP2;ratioP2;P2;SDS_P1;SDS_P2;PMS_P1;PMS_P2;Temp;Humidity;BMP_temperature;BMP_pressure;BME280_temperature;BME280_humidity;BME280_pressure;Samples;Min_cycle;Max_cycle;Signal;HPM_P1;HPM_P2
2022/04/07 00:02:03;;;;;;;13.93;2.47;;;8.90;82.80;;;;;;5014776;28;20022;-82
2022/04/07 00:04:29;;;;;;;14.25;2.60;;;8.90;93.80;;;;;;5013815;28;20018;-83
2022/04/07 00:06:55;;;;;;;9.18;2.15;;;8.90;97.30;;;;;;5014759;28;20032;-82
2022/04/07 00:09:21;;;;;;;12.52;2.20;;;8.90;99.90;;;;;;5014809;28;20469;-82
2022/04/07 00:11:46;;;;;;;17.02;3.55;;;8.90;99.90;;;;;;5014971;28;20033;-82
2022/04/07 00:14:12;;;;;;;13.52;2.55;;;8.90;99.50;;;;;;5015373;28;20149;-82
2022/04/07 00:16:38;;;;;;;13.98;2.35;;;8.90;99.00;;;;;;5015351;28;20030;-82
2022/04/07 00:19:05;;;;;;;18.08;2.25;;;9.00;78.80;;;;;;5013726;28;20109;-82
2022/04/07 00:21:38;;;;;;;16.20;3.03;;;9.10;70.10;;;;;;5014436;28;20021;-82
2022/04/07 00:24:05;;;;;;;8.50;2.10;;;9.10;53.10;;;;;;5014776;28;20381;-82
2022/04/07 00:26:32;;;;;;;12.10;1.88;;;9.10;42.30;;;;;;5014871;28;20057;-82
2022/04/07 00:28:58;;;;;;;14.68;3.00;;;9.10;25.70;;;;;;5013739;28;20049;-82
2022/04/07 00:31:24;;;;;;;13.77;2.65;;;9.10;34.70;;;;;;5014189;28;20065;-82
2022/04/07 00:33:50;;;;;;;14.63;2.35;;;9.20;56.70;;;;;;5015118;28;20053;-82
2022/04/07 00:36:15;;;;;;;17.23;3.03;;;9.10;99.90;;;;;;5015803;28;20038;-82
2022/04/07 00:38:41;;;;;;;14.40;2.28;;;9.10;99.90;;;;;;5017202;28;20030;-82
2022/04/07 00:41:06;;;;;;;14.18;3.35;;;9.10;99.90;;;;;;5016444;28;20030;-82
2022/04/07 00:43:34;;;;;;;18.58;3.47;;;9.10;99.90;;;;;;5017930;28;20045;-82
2022/04/07 00:46:19;;;;;;;14.38;2.13;;;9.00;99.90;;;;;;5016501;28;20018;-82
2022/04/07 00:48:45;;;;;;;12.55;2.70;;;9.00;99.90;;;;;;5016658;28;20573;-82
2022/04/07 00:51:12;;;;;;;10.63;2.28;;;9.00;99.90;;;;;;5017020;28;20377;-82
2022/04/07 00:53:38;;;;;;;14.90;2.40;;;8.90;99.90;;;;;;5016786;28;20033;-82
2022/04/07 00:56:06;;;;;;;15.10;2.88;;;8.90;99.90;;;;;;5025877;28;20076;-83
2022/04/07 00:58:32;;;;;;;11.43;2.60;;;8.90;99.90;;;;;;5024268;28;20018;-82
2022/04/07 01:00:58;;;;;;;16.77;2.53;;;9.00;99.90;;;;;;5024748;28;20033;-83
2022/04/07 01:03:24;;;;;;;18.52;3.42;;;9.10;99.90;;;;;;5024268;28;20022;-83
2022/04/07 01:05:50;;;;;;;18.35;3.08;;;9.10;99.90;;;;;;5025872;28;20026;-82
2022/04/07 01:08:16;;;;;;;19.08;3.22;;;9.10;99.90;;;;;;5024619;28;20078;-83
2022/04/07 01:10:44;;;;;;;15.90;2.88;;;9.10;99.90;;;;;;5026689;28;20025;-83
2022/04/07 01:13:11;;;;;;;15.10;2.35;;;9.10;94.00;;;;;;5027280;28;20521;-83
2022/04/07 01:15:37;;;;;;;16.30;3.17;;;9.10;71.40;;;;;;5015725;28;20054;-82
2022/04/07 01:18:04;;;;;;;16.33;2.53;;;9.10;48.90;;;;;;5020363;28;20033;-82
2022/04/07 01:20:30;;;;;;;18.90;2.72;;;9.10;48.40;;;;;;5022598;28;20037;-82
2022/04/07 01:22:56;;;;;;;16.50;3.35;;;9.10;45.30;;;;;;5022398;28;20030;-82
2022/04/07 01:25:26;;;;;;;14.50;3.90;;;9.10;25.70;;;;;;5023182;28;20037;-82
2022/04/07 01:27:52;;;;;;;24.27;3.05;;;9.10;15.60;;;;;;5023109;28;20597;-82
2022/04/07 01:30:18;;;;;;;14.50;2.22;;;9.10;12.00;;;;;;5022619;28;20057;-82
2022/04/07 01:32:48;;;;;;;18.60;2.85;;;9.10;6.40;;;;;;5020619;28;20381;-82
2022/04/07 01:35:14;;;;;;;16.85;2.95;;;9.10;16.10;;;;;;5020843;28;20429;-83
2022/04/07 01:37:44;;;;;;;17.55;3.47;;;9.10;15.10;;;;;;5020684;28;20041;-83
2022/04/07 01:40:13;;;;;;;20.27;3.17;;;9.10;3.00;;;;;;5020696;28;20050;-82
2022/04/07 01:42:38;;;;;;;13.25;2.25;;;9.00;9.90;;;;;;5019094;28;20026;-82
2022/04/07 01:45:06;;;;;;;6.47;1.92;;;9.10;8.40;;;;;;5019609;28;20026;-82
2022/04/07 01:47:34;;;;;;;18.58;2.70;;;9.10;1.00;;;;;;5020085;28;20401;-83
2022/04/07 01:50:06;;;;;;;22.55;3.17;;;9.10;1.00;;;;;;5019451;28;20026;-82
2022/04/07 01:52:35;;;;;;;17.70;3.00;;;9.10;1.00;;;;;;5018789;28;20049;-83
2022/04/07 01:55:01;;;;;;;17.90;3.20;;;9.00;28.80;;;;;;5019829;28;20409;-82
2022/04/07 01:57:27;;;;;;;14.70;2.83;;;8.90;54.60;;;;;;5019294;28;20061;-82
2022/04/07 01:59:53;;;;;;;12.45;2.17;;;8.90;54.10;;;;;;5019280;28;20022;-83
2022/04/07 02:02:21;;;;;;;22.13;3.03;;;8.90;67.00;;;;;;5018331;28;20025;-82
2022/04/07 02:05:08;;;;;;;23.80;3.47;;;8.90;61.20;;;;;;5019412;28;20021;-82
2022/04/07 02:07:34;;;;;;;19.98;3.13;;;9.00;61.20;;;;;;5019407;28;20034;-83
2022/04/07 02:10:00;;;;;;;19.90;3.10;;;9.00;63.80;;;;;;5019040;28;20382;-82
2022/04/07 02:12:27;;;;;;;14.40;2.92;;;9.10;61.50;;;;;;5021286;28;20497;-83
2022/04/07 02:14:53;;;;;;;20.48;2.95;;;9.00;74.10;;;;;;5021367;28;20141;-82
2022/04/07 02:17:22;;;;;;;25.83;3.83;;;9.00;76.30;;;;;;5021612;28;20547;-83
2022/04/07 02:19:55;;;;;;;19.13;3.03;;;9.00;73.60;;;;;;5020892;28;20085;-82
2022/04/07 02:22:21;;;;;;;14.35;3.13;;;9.00;70.10;;;;;;5018934;28;20026;-82
2022/04/07 02:24:47;;;;;;;17.30;2.85;;;9.00;49.60;;;;;;5018275;28;20052;-82
2022/04/07 02:27:14;;;;;;;15.50;2.95;;;9.00;58.40;;;;;;5017352;28;20050;-82
2022/04/07 02:29:40;;;;;;;15.55;2.40;;;9.00;45.60;;;;;;5017917;28;20022;-82
2022/04/07 02:32:07;;;;;;;15.48;2.83;;;9.00;31.50;;;;;;5016052;28;20029;-82
2022/04/07 02:34:33;;;;;;;16.40;3.00;;;9.00;33.40;;;;;;5017034;28;20037;-82
2022/04/07 02:36:58;;;;;;;18.95;2.90;;;9.00;32.30;;;;;;5017388;28;20026;-82
2022/04/07 02:39:24;;;;;;;14.00;2.88;;;9.00;22.50;;;;;;5016889;28;20022;-82
2022/04/07 02:41:49;;;;;;;14.93;2.75;;;9.10;19.30;;;;;;5017049;28;20163;-82
2022/04/07 02:44:17;;;;;;;19.63;2.97;;;9.10;17.20;;;;;;5018427;28;20024;-82
2022/04/07 02:46:43;;;;;;;16.27;2.50;;;9.10;13.80;;;;;;5018667;28;20061;-82
2022/04/07 02:49:09;;;;;;;23.67;3.00;;;9.10;17.60;;;;;;5017698;28;20452;-83
2022/04/07 02:51:34;;;;;;;17.67;2.67;;;9.10;7.70;;;;;;5017341;28;20025;-83
2022/04/07 02:54:14;;;;;;;20.60;2.80;;;9.20;8.80;;;;;;5019672;28;20025;-82
2022/04/07 02:56:47;;;;;;;15.80;2.92;;;9.20;4.70;;;;;;4998503;28;20084;-82
2022/04/07 02:59:13;;;;;;;12.30;2.78;;;9.20;1.00;;;;;;4998330;28;20065;-82
2022/04/07 03:01:40;;;;;;;21.25;3.45;;;9.20;1.00;;;;;;5015445;28;20029;-82
2022/04/07 03:04:06;;;;;;;24.25;3.38;;;9.10;1.00;;;;;;5019335;28;20030;-82
2022/04/07 03:06:32;;;;;;;20.67;2.60;;;9.10;4.40;;;;;;5017918;28;20121;-83
2022/04/07 03:08:57;;;;;;;16.65;2.40;;;9.10;1.00;;;;;;5017536;28;20022;-82
2022/04/07 03:11:23;;;;;;;15.98;2.38;;;9.20;1.00;;;;;;5018500;28;20068;-82
2022/04/07 03:13:48;;;;;;;15.93;2.63;;;9.20;1.00;;;;;;5017700;28;20045;-82
2022/04/07 03:16:14;;;;;;;25.85;4.22;;;9.20;1.00;;;;;;5019178;28;20033;-82
2022/04/07 03:18:39;;;;;;;23.45;3.13;;;9.20;1.00;;;;;;5018432;28;20017;-82
2022/04/07 03:21:05;;;;;;;18.70;2.85;;;9.20;1.00;;;;;;5018039;28;20078;-82
2022/04/07 03:23:30;;;;;;;20.25;2.20;;;9.30;1.00;;;;;;5017796;28;20053;-82
2022/04/07 03:25:56;;;;;;;18.80;3.45;;;9.20;1.00;;;;;;5018142;28;20045;-82
2022/04/07 03:28:21;;;;;;;19.17;2.83;;;9.20;1.00;;;;;;5017728;28;20072;-82
2022/04/07 03:30:47;;;;;;;21.13;2.88;;;9.20;1.00;;;;;;5016085;28;20088;-82
2022/04/07 03:33:12;;;;;;;14.05;2.42;;;9.20;1.00;;;;;;5015881;28;20100;-82
2022/04/07 03:35:38;;;;;;;25.35;3.53;;;9.20;1.00;;;;;;5015731;28;20026;-82
2022/04/07 03:38:05;;;;;;;17.23;2.08;;;9.10;1.00;;;;;;5014491;28;20041;-82
2022/04/07 03:40:30;;;;;;;17.65;3.10;;;9.10;1.00;;;;;;5014453;28;20033;-82
2022/04/07 03:42:56;;;;;;;17.67;3.30;;;9.20;1.00;;;;;;5016491;28;20026;-82
2022/04/07 03:45:21;;;;;;;17.13;3.10;;;9.10;1.00;;;;;;5016408;28;20030;-81
2022/04/07 03:47:47;;;;;;;22.48;4.28;;;9.10;1.00;;;;;;5015692;28;20116;-82
2022/04/07 03:50:13;;;;;;;17.67;2.92;;;9.10;1.00;;;;;;5017779;28;20026;-82
2022/04/07 03:52:38;;;;;;;23.25;3.35;;;9.10;1.00;;;;;;5018638;28;20026;-82
2022/04/07 03:55:04;;;;;;;19.20;4.05;;;9.10;5.90;;;;;;5015563;28;20018;-82
2022/04/07 03:57:30;;;;;;;23.23;3.97;;;9.10;1.00;;;;;;5016593;28;20037;-82
2022/04/07 03:59:55;;;;;;;22.90;4.22;;;9.10;1.00;;;;;;5014339;28;20028;-82
2022/04/07 04:02:21;;;;;;;23.27;4.00;;;9.10;4.30;;;;;;5016776;28;20022;-82
2022/04/07 04:04:46;;;;;;;23.92;3.70;;;9.10;11.50;;;;;;5016918;28;20026;-82
2022/04/07 04:07:12;;;;;;;29.85;4.00;;;9.10;20.60;;;;;;5003306;28;20041;-82
2022/04/07 04:09:38;;;;;;;23.27;4.00;;;9.00;69.00;;;;;;5022452;28;20116;-82
2022/04/07 04:12:05;;;;;;;27.15;5.22;;;8.90;83.70;;;;;;5021429;28;20049;-82
2022/04/07 04:14:30;;;;;;;27.13;3.58;;;9.00;50.40;;;;;;5022368;28;20477;-82
2022/04/07 04:16:56;;;;;;;25.10;4.88;;;8.90;80.30;;;;;;5021991;28;20139;-82
2022/04/07 04:19:22;;;;;;;24.58;4.43;;;8.90;78.70;;;;;;5021042;28;20044;-82
2022/04/07 04:21:47;;;;;;;27.70;5.57;;;8.90;80.30;;;;;;5027314;28;20033;-82
2022/04/07 04:24:13;;;;;;;17.95;3.65;;;8.90;93.30;;;;;;5030184;28;20014;-82
2022/04/07 04:26:38;;;;;;;30.35;4.15;;;9.00;99.90;;;;;;5019516;28;20032;-81
2022/04/07 04:29:04;;;;;;;27.02;3.70;;;8.90;99.90;;;;;;5007180;28;20038;-82
2022/04/07 04:31:30;;;;;;;29.92;4.22;;;8.90;99.90;;;;;;5009114;28;20059;-81
2022/04/07 04:33:55;;;;;;;24.40;3.97;;;8.90;99.90;;;;;;5010702;28;20022;-82
2022/04/07 04:36:21;;;;;;;26.33;4.80;;;8.90;99.90;;;;;;5010059;28;20018;-82
2022/04/07 04:38:48;;;;;;;27.83;4.22;;;8.90;99.90;;;;;;5007959;28;20026;-82
2022/04/07 04:41:13;;;;;;;25.92;4.18;;;8.90;99.90;;;;;;5004052;28;20500;-82
2022/04/07 04:43:39;;;;;;;19.92;3.75;;;8.80;99.90;;;;;;5007119;28;20026;-82
2022/04/07 04:46:04;;;;;;;25.98;3.38;;;8.80;99.90;;;;;;5010268;28;20032;-82
2022/04/07 04:48:30;;;;;;;15.25;2.70;;;8.70;99.90;;;;;;5007681;28;20041;-82
2022/04/07 04:50:56;;;;;;;16.55;2.85;;;8.70;99.90;;;;;;5015809;28;20033;-83
2022/04/07 04:53:23;;;;;;;6.63;1.73;;;8.40;99.90;;;;;;5024435;28;20021;-83
2022/04/07 04:55:49;;;;;;;12.68;1.23;;;8.20;2.00;;;;;;5020924;28;20056;-81
2022/04/07 04:58:15;;;;;;;9.65;1.85;;;8.00;1.00;;;;;;4998036;28;20030;-81
2022/04/07 05:00:41;;;;;;;14.73;1.85;;;7.80;1.00;;;;;;5002524;28;20116;-81
2022/04/07 05:03:07;;;;;;;10.75;1.20;;;7.70;1.00;;;;;;5012413;28;20030;-81
2022/04/07 05:05:32;;;;;;;7.75;1.02;;;7.50;1.00;;;;;;5013480;28;20144;-81
2022/04/07 05:07:58;;;;;;;4.45;0.90;;;7.40;11.50;;;;;;5014413;28;20029;-82
2022/04/07 05:10:24;;;;;;;4.85;0.80;;;7.30;38.60;;;;;;5014445;28;20108;-81
2022/04/07 05:12:51;;;;;;;4.40;0.60;;;7.20;69.20;;;;;;5014467;28;20025;-81
2022/04/07 05:15:16;;;;;;;4.07;0.70;;;7.00;99.90;;;;;;5013812;28;20470;-81
2022/04/07 05:17:46;;;;;;;2.38;0.73;;;7.10;99.90;;;;;;5014179;28;20540;-81
2022/04/07 05:20:13;;;;;;;4.90;0.65;;;6.90;61.20;;;;;;5014588;28;20050;-81
2022/04/07 05:22:38;;;;;;;5.60;0.77;;;6.90;1.00;;;;;;5014615;28;20022;-81
2022/04/07 05:25:05;;;;;;;3.78;0.70;;;6.80;1.00;;;;;;5014380;28;20105;-81
2022/04/07 05:27:32;;;;;;;8.50;0.80;;;6.70;2.40;;;;;;5013893;28;20112;-82
2022/04/07 05:29:59;;;;;;;3.35;0.50;;;6.70;47.60;;;;;;5014457;28;20363;-81
2022/04/07 05:32:25;;;;;;;6.40;1.05;;;6.60;99.90;;;;;;5008354;28;20022;-81
2022/04/07 05:34:50;;;;;;;7.45;0.98;;;6.50;99.90;;;;;;5001784;28;20029;-82
2022/04/07 05:37:16;;;;;;;5.50;0.70;;;6.50;99.90;;;;;;5013868;28;20018;-81
2022/04/07 05:39:41;;;;;;;3.80;0.80;;;6.40;99.90;;;;;;5014022;28;20014;-81
2022/04/07 05:42:07;;;;;;;8.07;0.63;;;6.40;99.90;;;;;;5013914;28;20029;-82
2022/04/07 05:44:33;;;;;;;5.03;0.90;;;6.40;99.90;;;;;;5012495;28;20414;-82
2022/04/07 05:46:58;;;;;;;4.88;0.82;;;6.40;99.90;;;;;;5013645;28;20037;-81
2022/04/07 05:49:24;;;;;;;3.03;0.60;;;6.40;99.90;;;;;;5013575;28;20026;-82
2022/04/07 05:51:53;;;;;;;3.70;0.70;;;6.30;99.90;;;;;;5013771;28;20440;-81
2022/04/07 05:54:20;;;;;;;4.10;1.27;;;6.30;99.90;;;;;;5013732;28;20382;-81
2022/04/07 05:56:46;;;;;;;4.45;0.68;;;6.30;99.90;;;;;;5012686;28;20679;-81
2022/04/07 05:59:11;;;;;;;4.63;0.80;;;6.20;99.90;;;;;;5004681;28;20084;-81
2022/04/07 06:01:37;;;;;;;4.25;0.50;;;6.20;99.90;;;;;;5013268;28;20509;-81
2022/04/07 06:04:03;;;;;;;5.22;1.10;;;6.30;99.90;;;;;;5012924;28;20021;-81
2022/04/07 06:06:28;;;;;;;7.45;0.75;;;6.20;99.90;;;;;;5006306;28;20041;-81
2022/04/07 06:08:54;;;;;;;6.57;1.50;;;6.20;99.90;;;;;;5009778;28;20386;-82
2022/04/07 06:11:20;;;;;;;3.97;0.85;;;6.20;99.90;;;;;;4996351;28;20014;-80
2022/04/07 06:13:46;;;;;;;4.93;0.63;;;6.20;99.90;;;;;;4996952;28;20037;-81
2022/04/07 06:16:12;;;;;;;7.25;1.20;;;6.20;99.90;;;;;;5012071;28;20026;-81
2022/04/07 06:18:38;;;;;;;6.28;0.82;;;6.30;99.90;;;;;;5013437;28;20038;-81
2022/04/07 06:21:03;;;;;;;8.10;0.90;;;6.20;99.90;;;;;;5013337;28;20401;-82
2022/04/07 06:23:31;;;;;;;3.15;0.73;;;6.20;99.90;;;;;;5013213;28;20018;-81
2022/04/07 06:25:57;;;;;;;4.95;0.73;;;6.30;99.90;;;;;;5013062;28;20018;-81
2022/04/07 06:28:22;;;;;;;6.32;0.90;;;6.40;99.90;;;;;;5013216;28;20030;-81
2022/04/07 06:30:51;;;;;;;12.40;1.85;;;6.30;99.90;;;;;;5013494;28;20033;-81
2022/04/07 06:33:17;;;;;;;7.88;1.60;;;6.30;99.90;;;;;;5013392;28;20018;-81
2022/04/07 06:35:43;;;;;;;8.23;0.95;;;6.30;99.90;;;;;;5012722;28;20342;-81
2022/04/07 06:38:09;;;;;;;7.32;1.20;;;6.30;99.90;;;;;;5013029;28;20412;-81
2022/04/07 06:40:34;;;;;;;10.23;0.95;;;6.30;99.90;;;;;;5012911;28;20028;-81
2022/04/07 06:43:00;;;;;;;7.38;1.00;;;6.30;99.90;;;;;;5012615;28;20081;-81
2022/04/07 06:45:27;;;;;;;7.38;1.15;;;6.40;99.90;;;;;;5012839;28;20022;-81
2022/04/07 06:47:52;;;;;;;9.40;1.25;;;6.50;99.90;;;;;;5012601;28;20042;-81
2022/04/07 06:50:19;;;;;;;9.25;1.17;;;6.50;99.90;;;;;;5012678;28;20022;-81
2022/04/07 06:52:45;;;;;;;3.95;0.95;;;6.60;99.90;;;;;;5004192;28;20034;-81
2022/04/07 06:55:12;;;;;;;7.93;0.77;;;6.70;99.90;;;;;;4998755;28;21544;-80
2022/04/07 06:57:50;;;;;;;4.82;0.73;;;6.60;99.90;;;;;;4997369;28;20367;-81
2022/04/07 07:00:20;;;;;;;6.18;1.35;;;6.70;99.90;;;;;;5007348;28;20050;-81
2022/04/07 07:02:53;;;;;;;4.38;1.20;;;6.70;99.90;;;;;;5012427;28;20076;-81
2022/04/07 07:05:20;;;;;;;7.13;0.93;;;6.90;74.30;;;;;;5010567;28;20103;-81
2022/04/07 07:07:45;;;;;;;8.40;1.35;;;6.80;70.20;;;;;;5011413;28;20041;-81
2022/04/07 07:10:11;;;;;;;7.43;1.25;;;6.90;30.80;;;;;;4997131;28;20026;-80
2022/04/07 07:12:37;;;;;;;5.55;0.77;;;7.00;6.40;;;;;;4996982;28;20370;-80
2022/04/07 07:15:03;;;;;;;6.30;1.08;;;6.90;1.00;;;;;;5001962;28;20592;-81
2022/04/07 07:17:33;;;;;;;7.65;1.10;;;8.10;1.00;;;;;;5011773;28;20038;-81
2022/04/07 07:20:04;;;;;;;4.43;0.77;;;12.50;99.90;;;;;;4994814;28;20100;-81
2022/04/07 07:22:30;;;;;;;4.50;0.90;;;17.80;99.90;;;;;;4996154;28;20026;-81
2022/04/07 07:24:56;;;;;;;4.50;0.90;;;21.00;99.90;;;;;;4994897;28;20041;-82
2022/04/07 07:27:21;;;;;;;8.10;0.98;;;23.10;99.90;;;;;;4998736;28;20034;-81
2022/04/07 07:29:47;;;;;;;7.78;1.08;;;23.90;99.90;;;;;;4992473;28;20533;-82
2022/04/07 07:32:12;;;;;;;5.15;0.60;;;24.70;99.90;;;;;;5001418;28;20076;-81
2022/04/07 07:34:38;;;;;;;4.55;0.90;;;25.80;99.90;;;;;;5013958;28;20034;-80
2022/04/07 07:37:04;;;;;;;5.20;1.17;;;27.50;99.90;;;;;;5014158;28;20057;-81
2022/04/07 07:39:29;;;;;;;4.00;0.93;;;24.00;99.90;;;;;;5014235;28;20080;-80
2022/04/07 07:41:55;;;;;;;4.90;1.10;;;21.90;99.90;;;;;;5012686;28;20108;-81
2022/04/07 07:44:21;;;;;;;5.20;0.80;;;23.00;99.90;;;;;;5011116;28;20014;-81
2022/04/07 07:46:46;;;;;;;4.78;1.05;;;23.80;99.90;;;;;;5011046;28;20512;-81
2022/04/07 07:49:12;;;;;;;4.75;0.98;;;20.70;99.90;;;;;;5010850;28;20026;-81
2022/04/07 07:51:38;;;;;;;2.92;0.70;;;21.90;99.90;;;;;;5010740;28;20698;-81
2022/04/07 07:54:04;;;;;;;5.72;1.20;;;21.40;99.90;;;;;;5010889;28;20049;-81
2022/04/07 07:56:30;;;;;;;7.75;0.95;;;23.20;99.90;;;;;;5010512;28;20478;-81
2022/04/07 07:58:55;;;;;;;5.40;0.95;;;19.90;99.90;;;;;;4993366;28;20022;-81
2022/04/07 08:01:21;;;;;;;8.38;1.13;;;19.30;99.90;;;;;;5001708;28;20097;-81
2022/04/07 08:03:47;;;;;;;7.18;0.98;;;18.70;99.90;;;;;;5010440;28;20658;-81
2022/04/07 08:06:13;;;;;;;4.85;1.10;;;20.90;99.90;;;;;;5011090;28;20022;-81
2022/04/07 08:08:39;;;;;;;7.13;0.95;;;22.50;99.90;;;;;;5004514;28;20429;-81
2022/04/07 08:11:04;;;;;;;9.82;1.30;;;19.60;99.90;;;;;;4995842;28;20019;-80
2022/04/07 08:13:30;;;;;;;4.88;0.80;;;24.80;99.90;;;;;;5005568;28;20022;-81
2022/04/07 08:15:55;;;;;;;6.32;1.17;;;27.90;99.90;;;;;;5013371;28;20080;-80
2022/04/07 08:18:23;;;;;;;6.45;0.90;;;29.30;99.90;;;;;;5012064;28;20026;-80
2022/04/07 08:20:49;;;;;;;4.20;0.63;;;29.00;99.90;;;;;;5013641;28;20018;-80
2022/04/07 08:23:14;;;;;;;7.07;1.05;;;28.80;99.90;;;;;;5013301;28;20030;-81
2022/04/07 08:25:40;;;;;;;4.88;1.10;;;29.70;99.90;;;;;;5012460;28;20033;-81
2022/04/07 08:28:06;;;;;;;3.05;1.08;;;28.00;99.90;;;;;;5013057;28;20028;-81
2022/04/07 08:30:34;;;;;;;4.63;1.00;;;28.40;99.90;;;;;;5013187;28;20028;-81
2022/04/07 08:33:00;;;;;;;5.47;1.20;;;27.90;99.90;;;;;;5013386;28;20049;-81
2022/04/07 08:35:26;;;;;;;6.28;1.45;;;29.30;99.90;;;;;;5013209;28;20022;-81
2022/04/07 08:37:51;;;;;;;7.93;1.10;;;30.40;99.90;;;;;;5012956;28;20100;-81
2022/04/07 08:40:20;;;;;;;6.05;1.08;;;29.90;99.90;;;;;;5013122;28;20080;-81
2022/04/07 08:42:45;;;;;;;5.78;1.30;;;30.70;99.90;;;;;;5014916;28;20549;-81
2022/04/07 08:45:11;;;;;;;5.72;1.02;;;31.40;99.90;;;;;;5001325;28;20034;-81
2022/04/07 08:47:52;;;;;;;4.78;1.08;;;31.30;99.90;;;;;;4993245;28;20039;-81
2022/04/07 08:53:40;;;;;;;6.28;1.23;;;25.40;99.90;;;;;;4993658;28;20037;-82
2022/04/07 08:56:08;;;;;;;5.57;1.00;;;23.20;99.90;;;;;;4993515;28;20022;-81
2022/04/07 08:58:34;;;;;;;3.80;0.90;;;21.70;99.90;;;;;;5005254;28;20022;-85
2022/04/07 09:01:00;;;;;;;5.43;1.55;;;19.50;99.90;;;;;;5013457;28;20095;-83
2022/04/07 09:03:26;;;;;;;6.43;1.20;;;19.10;99.90;;;;;;5012956;28;20022;-83
2022/04/07 09:05:57;;;;;;;5.60;1.20;;;17.70;99.90;;;;;;5015067;28;20509;-83
2022/04/07 09:08:49;;;;;;;10.43;1.63;;;16.80;99.90;;;;;;5016157;28;20049;-84
2022/04/07 09:11:17;;;;;;;8.00;1.38;;;17.70;99.90;;;;;;5014680;28;20030;-84
2022/04/07 09:13:45;;;;;;;6.57;1.15;;;16.90;99.90;;;;;;5013758;28;20060;-83
2022/04/07 09:16:12;;;;;;;7.75;1.50;;;15.70;99.90;;;;;;5013307;28;20453;-83
2022/04/07 09:18:39;;;;;;;10.43;1.30;;;15.30;99.90;;;;;;5012982;28;20454;-83
2022/04/07 09:21:06;;;;;;;4.93;1.05;;;15.30;99.90;;;;;;5011589;28;20018;-83
2022/04/07 09:23:42;;;;;;;6.32;1.08;;;14.60;99.90;;;;;;5012727;28;20480;-83
2022/04/07 09:26:12;;;;;;;9.05;1.48;;;14.90;99.90;;;;;;5012835;28;20061;-83
2022/04/07 09:28:37;;;;;;;;;;;15.10;99.90;;;;;;5013219;28;20087;-83
2022/04/07 09:31:03;;;;;;;6.93;1.30;;;16.60;99.90;;;;;;5012818;28;19909;-83
2022/04/07 09:33:29;;;;;;;6.10;1.30;;;18.50;99.90;;;;;;5012856;28;20030;-83
2022/04/07 09:36:21;;;;;;;4.95;0.93;;;16.10;99.90;;;;;;5014628;28;20049;-82
2022/04/07 09:38:52;;;;;;;7.97;1.30;;;14.40;99.90;;;;;;5017143;28;20022;-82
2022/04/07 09:41:19;;;;;;;4.70;0.75;;;13.80;99.90;;;;;;5016451;28;20026;-82
2022/04/07 09:43:46;;;;;;;5.80;1.02;;;13.50;99.90;;;;;;5001609;28;20038;-82
2022/04/07 09:46:20;;;;;;;7.13;1.50;;;13.20;99.90;;;;;;5010273;28;20075;-82
2022/04/07 09:49:06;;;;;;;5.60;1.30;;;13.00;99.90;;;;;;5012615;28;20610;-83
2022/04/07 09:51:52;;;;;;;10.25;1.25;;;12.40;99.90;;;;;;5013807;28;20397;-82
2022/04/07 09:54:18;;;;;;;8.52;1.30;;;12.10;99.90;;;;;;5013190;28;20432;-82
2022/04/07 09:56:46;;;;;;;6.53;1.10;;;12.20;99.90;;;;;;5013902;28;20033;-83
2022/04/07 09:59:18;;;;;;;15.02;2.28;;;11.80;99.90;;;;;;5013396;28;20378;-82
2022/04/07 10:01:43;;;;;;;9.75;2.03;;;11.90;99.90;;;;;;5011236;28;20445;-82
2022/04/07 10:04:10;;;;;;;9.88;1.65;;;12.40;99.90;;;;;;5008785;28;20625;-82
2022/04/07 10:06:38;;;;;;;10.55;1.42;;;12.40;99.90;;;;;;4998781;28;20482;-82
2022/04/07 10:09:08;;;;;;;8.80;1.65;;;12.60;99.90;;;;;;5001280;28;20025;-82
2022/04/07 10:11:35;;;;;;;6.03;1.30;;;12.70;99.90;;;;;;5001205;28;20022;-82
2022/04/07 10:14:01;;;;;;;12.02;1.88;;;12.70;99.90;;;;;;5006118;28;20440;-82
2022/04/07 10:16:27;;;;;;;7.20;1.02;;;12.50;99.90;;;;;;5003620;28;20076;-82
2022/04/07 10:19:05;;;;;;;12.02;2.22;;;12.20;99.90;;;;;;5007218;28;20547;-82
2022/04/07 10:22:05;;;;;;;7.85;1.50;;;12.40;99.90;;;;;;5012129;28;20026;-82
2022/04/07 10:24:37;;;;;;;12.60;3.00;;;11.90;99.90;;;;;;5015765;28;20037;-81
2022/04/07 10:27:06;;;;;;;6.63;1.88;;;11.50;99.90;;;;;;5015890;28;20072;-82
2022/04/07 10:30:23;;;;;;;7.57;1.02;;;11.40;99.90;;;;;;5016651;28;20033;-83
2022/04/07 10:32:52;;;;;;;9.35;1.75;;;11.50;99.90;;;;;;5009501;28;20022;-82
2022/04/07 10:35:30;;;;;;;13.73;1.35;;;11.70;99.90;;;;;;5000350;28;20026;-82
2022/04/07 10:38:04;;;;;;;10.15;2.05;;;13.80;99.90;;;;;;5009709;28;20026;-82
2022/04/07 10:40:38;;;;;;;11.30;2.05;;;14.50;99.90;;;;;;5009973;28;20033;-82
2022/04/07 10:43:04;;;;;;;8.18;1.10;;;14.00;99.90;;;;;;5013257;28;20010;-82
2022/04/07 10:45:36;;;;;;;12.00;1.55;;;14.30;99.90;;;;;;5027380;28;20048;-82
2022/04/07 10:48:25;;;;;;;11.65;1.73;;;14.10;99.90;;;;;;5024739;28;20147;-82
2022/04/07 10:50:55;;;;;;;8.90;1.55;;;14.00;99.90;;;;;;5015469;28;20410;-82
2022/04/07 10:53:21;;;;;;;9.77;1.13;;;13.50;99.90;;;;;;5005292;28;20022;-82
2022/04/07 10:55:57;;;;;;;7.90;1.50;;;13.30;99.90;;;;;;5013084;28;20026;-82
2022/04/07 10:58:44;;;;;;;6.57;1.52;;;13.10;99.90;;;;;;5012382;28;20476;-82
2022/04/07 11:01:32;;;;;;;5.90;1.02;;;13.30;99.90;;;;;;5013183;28;20037;-82
2022/04/07 11:04:25;;;;;;;8.10;1.73;;;13.70;99.90;;;;;;5015051;28;20026;-83
2022/04/07 11:07:13;;;;;;;6.80;1.58;;;13.20;99.90;;;;;;5008465;28;20038;-82
2022/04/07 11:09:55;;;;;;;6.93;1.65;;;14.70;99.90;;;;;;5014560;28;20052;-82
2022/04/07 11:12:25;;;;;;;3.28;0.93;;;14.80;99.90;;;;;;5012638;28;21328;-82
2022/04/07 11:15:11;;;;;;;8.52;1.20;;;13.20;99.90;;;;;;5012309;28;20045;-82
2022/04/07 11:17:40;;;;;;;7.88;1.38;;;13.30;99.90;;;;;;5005425;28;20091;-82
2022/04/07 11:20:26;;;;;;;6.45;1.30;;;14.10;99.90;;;;;;5014842;28;20026;-82
2022/04/07 11:22:55;;;;;;;9.00;1.40;;;14.30;99.90;;;;;;5013051;28;20354;-81
2022/04/07 11:25:31;;;;;;;5.97;1.52;;;14.70;99.90;;;;;;5012282;28;20022;-82
2022/04/07 11:28:24;;;;;;;9.52;1.60;;;14.70;99.90;;;;;;5012326;28;20042;-83
2022/04/07 11:30:54;;;;;;;4.35;1.08;;;14.10;99.90;;;;;;5006675;28;20133;-82
2022/04/07 11:33:28;;;;;;;11.10;1.70;;;14.00;99.90;;;;;;5011899;28;20029;-81
2022/04/07 11:36:00;;;;;;;8.20;1.42;;;13.90;99.90;;;;;;5012250;28;20033;-82
2022/04/07 11:38:32;;;;;;;9.68;1.10;;;14.20;99.90;;;;;;5011678;28;20033;-82
2022/04/07 11:41:12;;;;;;;7.20;1.48;;;14.60;99.90;;;;;;5012059;28;20029;-82
2022/04/07 11:43:52;;;;;;;5.90;1.63;;;14.90;99.90;;;;;;5003919;28;20635;-82
2022/04/07 11:46:27;;;;;;;6.47;0.95;;;13.60;99.90;;;;;;5011848;28;20477;-82
2022/04/07 11:48:55;;;;;;;3.80;1.00;;;12.90;99.90;;;;;;5010516;28;20385;-82
2022/04/07 11:51:20;;;;;;;6.95;2.17;;;12.00;99.90;;;;;;5013578;28;20104;-82
2022/04/07 11:53:54;;;;;;;5.40;0.95;;;10.90;99.90;;;;;;5015011;28;20033;-82
2022/04/07 11:56:21;;;;;;;6.95;0.70;;;10.20;99.90;;;;;;5013929;28;20104;-82
2022/04/07 11:58:58;;;;;;;4.63;1.08;;;9.40;99.90;;;;;;5013538;28;20022;-82
2022/04/07 12:01:24;;;;;;;3.53;0.60;;;9.00;99.90;;;;;;5013118;28;20025;-82
2022/04/07 12:03:53;;;;;;;5.10;1.05;;;9.30;99.90;;;;;;5014584;28;20029;-82
2022/04/07 12:06:36;;;;;;;5.43;1.10;;;10.60;99.90;;;;;;5015870;28;20048;-82
2022/04/07 12:09:04;;;;;;;11.73;1.75;;;12.00;99.90;;;;;;5010246;28;20022;-82
2022/04/07 12:11:32;;;;;;;6.07;1.20;;;12.40;99.90;;;;;;5017067;28;20030;-81
2022/04/07 12:14:00;;;;;;;10.73;1.63;;;12.50;99.90;;;;;;5015426;28;20026;-81
2022/04/07 12:16:26;;;;;;;11.13;2.05;;;12.70;99.90;;;;;;5015148;28;20025;-82
2022/04/07 12:19:00;;;;;;;13.32;1.58;;;12.50;99.90;;;;;;5019744;28;20083;-82
2022/04/07 12:21:28;;;;;;;11.93;2.80;;;12.60;99.90;;;;;;5023090;28;20439;-81
2022/04/07 12:24:13;;;;;;;7.40;1.13;;;12.50;99.90;;;;;;5012827;28;20022;-82
2022/04/07 12:26:42;;;;;;;7.47;1.55;;;12.30;99.90;;;;;;5023498;28;20034;-82
2022/04/07 12:29:12;;;;;;;9.47;1.60;;;12.00;99.90;;;;;;5012775;28;20032;-82
2022/04/07 12:31:38;;;;;;;6.38;1.33;;;12.00;99.90;;;;;;5012186;28;20021;-82
2022/04/07 12:34:12;;;;;;;11.60;1.88;;;11.80;99.90;;;;;;5011669;28;20096;-82
2022/04/07 12:36:39;;;;;;;10.85;1.58;;;12.30;99.90;;;;;;5011872;28;20084;-82
2022/04/07 12:39:28;;;;;;;9.07;1.63;;;12.70;99.90;;;;;;5011020;28;20029;-82
2022/04/07 12:42:03;;;;;;;15.82;2.10;;;12.30;99.90;;;;;;5010799;28;20390;-82
2022/04/07 12:44:29;;;;;;;9.90;1.63;;;11.90;99.90;;;;;;5012072;28;20478;-82
2022/04/07 12:46:58;;;;;;;9.75;1.20;;;11.60;99.90;;;;;;5013414;28;20044;-82
2022/04/07 12:49:26;;;;;;;7.88;1.45;;;11.40;99.90;;;;;;5011531;28;20057;-82
2022/04/07 12:52:11;;;;;;;11.13;1.52;;;11.20;99.90;;;;;;5019100;28;20030;-82
2022/04/07 12:54:53;;;;;;;3.30;0.60;;;10.30;99.90;;;;;;5014734;28;20021;-82
2022/04/07 12:57:19;;;;;;;6.47;1.05;;;9.90;99.90;;;;;;5013259;28;20046;-82
2022/04/07 12:59:54;;;;;;;7.20;1.73;;;10.80;99.90;;;;;;5016161;28;20053;-82
2022/04/07 13:02:20;;;;;;;4.57;0.70;;;11.00;99.90;;;;;;5021001;28;20548;-82